Pacific Dawn — 3ECJ9 — position and weather

sailwx.info

Track history (hours):
 
Tides and Currents Weather Stations Pressure Air Temp Water Temp Dewpoint Dewpoint Depression Visibility Wind Speed Wind Dir Waves Ship Positions

Pacific Dawn

Last reported at 2017-Jun-04 17:24 UTC. Time now 2017-Jun-22 22:34 UTC.
Position N 33°44' E 124°40'.
Warning: this ship's position is 18 days out of date.

Length 239 m; draft 8 m.

Type: Ship. MMSI: 371361000.

Date/timePositionNaut miles runAvg speedWind from/ knotsBaromVisibWave heightAir tempDewpointWater temp
2017-Jun-04 17:24N 33°44' E 124°40'512.2
2017-Jun-04 16:58N 33°45' E 124°34'1012.3
2017-Jun-04 16:09N 33°45' E 124°22'212.4
2017-Jun-04 16:00N 33°45' E 124°20'612.4
2017-Jun-04 15:29N 33°45' E 124°12'612.2
2017-Jun-04 15:00N 33°45' E 124°05'912.3
2017-Jun-04 14:14N 33°45' E 123°54'1112.3
2017-Jun-04 13:19N 33°45' E 123°40'412.0
2017-Jun-04 13:00N 33°45' E 123°36'611.6
2017-Jun-04 12:31N 33°45' E 123°29'  
2017-May-29 22:11N 33°45' E 124°39'310.9
2017-May-29 21:54N 33°45' E 124°43'511.1
2017-May-29 21:28N 33°45' E 124°49'1410.7
2017-May-29 20:10N 33°45' E 125°06'310.8
2017-May-29 19:51N 33°45' E 125°10'310.3
2017-May-29 19:30N 33°45' E 125°14'510.5
2017-May-29 19:00N 33°46' E 125°20'610.6
2017-May-29 18:23N 33°46' E 125°28'411.0
2017-May-29 18:00N 33°46' E 125°33'611.4
2017-May-29 17:30N 33°47' E 125°40'2211.4
2017-May-29 15:34N 33°46' E 126°07'  
Track history (hours):
 
Tides and Currents Weather Stations Pressure Air Temp Water Temp Dewpoint Dewpoint Depression Visibility Wind Speed Wind Dir Waves Ship Positions

Pacific Dawn

Last reported at 2017-Jun-04 17:24 UTC. Time now 2017-Jun-22 22:34 UTC.
Position N 33°44' E 124°40'.
Warning: this ship's position is 18 days out of date.

Length 239 m; draft 8 m.

Type: Ship. MMSI: 371361000.

Date/timePositionNaut miles runAvg speedWind from/ knotsBaromVisibWave heightAir tempDewpointWater temp
2017-Jun-04 17:24N 33°44' E 124°40'512.2
2017-Jun-04 16:58N 33°45' E 124°34'1012.3
2017-Jun-04 16:09N 33°45' E 124°22'212.4
2017-Jun-04 16:00N 33°45' E 124°20'612.4
2017-Jun-04 15:29N 33°45' E 124°12'612.2
2017-Jun-04 15:00N 33°45' E 124°05'912.3
2017-Jun-04 14:14N 33°45' E 123°54'1112.3
2017-Jun-04 13:19N 33°45' E 123°40'412.0
2017-Jun-04 13:00N 33°45' E 123°36'611.6
2017-Jun-04 12:31N 33°45' E 123°29'  
2017-May-29 22:11N 33°45' E 124°39'310.9
2017-May-29 21:54N 33°45' E 124°43'511.1
2017-May-29 21:28N 33°45' E 124°49'1410.7
2017-May-29 20:10N 33°45' E 125°06'310.8
2017-May-29 19:51N 33°45' E 125°10'310.3
2017-May-29 19:30N 33°45' E 125°14'510.5
2017-May-29 19:00N 33°46' E 125°20'610.6
2017-May-29 18:23N 33°46' E 125°28'411.0
2017-May-29 18:00N 33°46' E 125°33'611.4
2017-May-29 17:30N 33°47' E 125°40'2211.4
2017-May-29 15:34N 33°46' E 126°07'  

Dump ship's entire track history